Terminal Aerodrome Forecast
Issued by NWS Cleveland, OH

Home | Current Version | Previous Version | Text Only | Print | Product List | Glossary On
Versions: 1 2 3 4 5 6 7 8 9 10 11 12 13 14
363
FTUS41 KCLE 212028 AAA
TAFERI
TAF AMD
KERI 212028Z 2120/2218 18009KT P6SM OVC120
     FM212200 18015KT P6SM OVC050
      TEMPO 2122/2202 5SM -SHRA OVC025
     FM220200 18006KT 6SM BR VCSH OVC025
     FM220500 18005KT 5SM BR BKN007 OVC050
     FM220800 15004KT 3SM BR OVC008
     FM221400 19007KT 6SM BR OVC015=

USA.gov is the U.S. government's official web portal to all federal, state and local government web resources and services.